Time;durP1;ratioP1;P1;durP2;ratioP2;P2;SDS_P1;SDS_P2;PMS_P1;PMS_P2;Temp;Humidity;BMP_temperature;BMP_pressure;BME280_temperature;BME280_humidity;BME280_pressure;Samples;Min_cycle;Max_cycle;Signal;HPM_P1;HPM_P2
2021/09/05 00:00:37;;;;;;;2.90;2.13;;;24.50;52.10;;;;;;5011865;28;20084;-57
2021/09/05 00:03:03;;;;;;;2.72;1.88;;;24.50;52.10;;;;;;5020141;28;20557;-52
2021/09/05 00:05:29;;;;;;;3.22;2.33;;;24.50;52.10;;;;;;5023899;28;20033;-58
2021/09/05 00:07:55;;;;;;;2.85;2.20;;;24.50;52.10;;;;;;5023263;28;20075;-58
2021/09/05 00:10:21;;;;;;;2.95;2.20;;;24.50;52.10;;;;;;5020596;28;20505;-59
2021/09/05 00:12:46;;;;;;;2.80;2.00;;;24.50;52.10;;;;;;5025099;28;20072;-55
2021/09/05 00:15:13;;;;;;;2.88;2.13;;;24.50;52.10;;;;;;5025371;28;20085;-62
2021/09/05 00:17:39;;;;;;;3.13;2.00;;;24.50;52.10;;;;;;5024210;28;20029;-56
2021/09/05 00:20:05;;;;;;;2.58;1.73;;;24.50;52.10;;;;;;5023317;28;20579;-61
2021/09/05 00:22:31;;;;;;;4.07;2.25;;;24.50;52.10;;;;;;5016224;28;20049;-57
2021/09/05 00:24:57;;;;;;;2.70;1.88;;;24.40;52.10;;;;;;5009606;28;20385;-56
2021/09/05 00:27:23;;;;;;;2.60;2.00;;;24.40;52.10;;;;;;5015579;28;20068;-56
2021/09/05 00:29:48;;;;;;;3.67;2.20;;;24.50;52.10;;;;;;5022822;28;20082;-52
2021/09/05 00:32:14;;;;;;;2.50;1.80;;;24.40;52.10;;;;;;5023300;28;20111;-57
2021/09/05 00:34:39;;;;;;;2.65;1.90;;;24.40;52.50;;;;;;5026658;28;20116;-56
2021/09/05 00:37:05;;;;;;;2.65;1.88;;;24.40;52.00;;;;;;5012946;28;20109;-55
2021/09/05 00:39:31;;;;;;;2.60;1.80;;;24.40;52.10;;;;;;5011343;28;20597;-49
2021/09/05 00:41:56;;;;;;;2.95;2.00;;;24.40;52.00;;;;;;4978706;28;1083830;-55
2021/09/05 00:44:22;;;;;;;3.63;2.00;;;24.40;52.10;;;;;;5019407;28;20034;-54
2021/09/05 00:46:47;;;;;;;2.70;1.88;;;24.40;52.00;;;;;;5011072;28;20037;-58
2021/09/05 00:49:13;;;;;;;2.80;2.00;;;24.40;52.10;;;;;;5012719;28;20502;-55
2021/09/05 00:51:41;;;;;;;2.70;1.80;;;24.40;52.10;;;;;;5023046;28;20377;-56
2021/09/05 00:54:09;;;;;;;2.78;1.80;;;24.40;52.10;;;;;;5023476;28;20155;-54
2021/09/05 00:56:37;;;;;;;2.90;2.10;;;24.40;52.10;;;;;;5021728;28;20327;-52
2021/09/05 00:59:10;;;;;;;2.50;1.80;;;24.40;52.10;;;;;;5007186;28;20030;-56
2021/09/05 01:01:36;;;;;;;2.65;1.88;;;24.30;52.00;;;;;;5018655;28;20029;-56
2021/09/05 01:04:03;;;;;;;2.70;1.80;;;24.30;52.00;;;;;;5023310;28;20108;-55
2021/09/05 01:06:29;;;;;;;2.45;1.73;;;24.30;52.00;;;;;;5024539;28;20091;-56
2021/09/05 01:08:57;;;;;;;2.60;1.98;;;24.30;52.00;;;;;;5021872;28;20240;-53
2021/09/05 01:11:23;;;;;;;2.95;1.73;;;24.30;52.00;;;;;;5021877;28;20551;-53
2021/09/05 01:13:50;;;;;;;2.33;1.80;;;24.30;52.00;;;;;;5025595;28;20040;-50
2021/09/05 01:16:30;;;;;;;2.28;1.60;;;24.30;52.00;;;;;;5025233;28;20445;-54
2021/09/05 01:19:10;;;;;;;2.80;1.70;;;24.30;52.00;;;;;;5010456;28;20025;-57
2021/09/05 01:21:37;;;;;;;3.53;2.10;;;24.30;52.00;;;;;;5020757;28;20424;-49
2021/09/05 01:24:04;;;;;;;2.90;2.25;;;24.30;52.00;;;;;;5025788;28;20189;-49
2021/09/05 01:26:31;;;;;;;2.30;1.70;;;24.30;52.00;;;;;;5025751;28;20033;-55
2021/09/05 01:28:57;;;;;;;2.42;1.80;;;24.30;52.10;;;;;;5015298;28;20029;-57
2021/09/05 01:31:25;;;;;;;2.47;1.73;;;24.30;52.00;;;;;;5020377;28;20041;-54
2021/09/05 01:33:51;;;;;;;2.50;1.80;;;24.30;52.10;;;;;;5020475;28;20087;-58
2021/09/05 01:36:17;;;;;;;2.55;1.85;;;24.30;52.10;;;;;;5024110;28;20389;-53
2021/09/05 01:38:42;;;;;;;2.78;1.80;;;24.30;52.00;;;;;;5021777;28;20226;-52
2021/09/05 01:41:08;;;;;;;2.42;1.83;;;24.30;52.10;;;;;;5014580;28;20231;-55
2021/09/05 01:43:34;;;;;;;2.30;1.60;;;24.20;52.00;;;;;;5019408;28;20048;-56
2021/09/05 01:46:00;;;;;;;2.40;1.70;;;24.30;52.00;;;;;;5025644;28;20498;-51
2021/09/05 01:48:25;;;;;;;2.80;1.80;;;24.20;52.00;;;;;;5014636;28;20030;-54
2021/09/05 01:50:51;;;;;;;2.22;1.55;;;24.20;52.00;;;;;;5014268;28;20032;-51
2021/09/05 01:53:17;;;;;;;2.80;1.70;;;24.20;52.00;;;;;;5013706;28;20026;-49
2021/09/05 01:55:42;;;;;;;2.10;1.65;;;24.20;52.10;;;;;;5013730;28;20362;-53
2021/09/05 01:58:08;;;;;;;2.58;1.90;;;24.20;52.00;;;;;;5016038;28;20111;-59
2021/09/05 02:00:33;;;;;;;2.58;1.77;;;24.20;52.10;;;;;;5009763;28;21054;-56
2021/09/05 02:02:59;;;;;;;2.28;1.67;;;24.20;52.00;;;;;;5025260;28;20029;-58
2021/09/05 02:05:25;;;;;;;2.13;1.60;;;24.20;52.10;;;;;;5022320;28;20220;-53
2021/09/05 02:07:50;;;;;;;2.15;1.50;;;24.10;52.00;;;;;;5009413;28;20034;-53
2021/09/05 02:10:16;;;;;;;2.42;1.70;;;24.20;52.10;;;;;;5018980;28;20033;-47
2021/09/05 02:12:41;;;;;;;2.35;1.77;;;24.10;52.00;;;;;;5019417;28;20617;-52
2021/09/05 02:15:08;;;;;;;2.05;1.52;;;24.20;52.10;;;;;;5019576;28;20215;-51
2021/09/05 02:17:33;;;;;;;2.10;1.60;;;24.10;52.00;;;;;;5018005;28;20045;-47
2021/09/05 02:19:59;;;;;;;2.80;1.70;;;24.10;52.10;;;;;;5008624;28;20580;-59
2021/09/05 02:22:24;;;;;;;2.50;1.70;;;24.10;52.00;;;;;;5022724;28;20064;-59
2021/09/05 02:24:50;;;;;;;2.10;1.60;;;24.10;52.00;;;;;;5022906;28;20033;-56
2021/09/05 02:27:16;;;;;;;2.55;1.67;;;24.10;52.00;;;;;;5017886;28;20547;-48
2021/09/05 02:29:42;;;;;;;2.50;1.70;;;24.10;52.00;;;;;;5024655;28;20084;-47
2021/09/05 02:32:07;;;;;;;2.40;1.75;;;24.10;52.10;;;;;;5024788;28;20381;-57
2021/09/05 02:34:33;;;;;;;2.08;1.55;;;24.10;52.10;;;;;;5010418;28;20029;-52
2021/09/05 02:36:59;;;;;;;2.42;1.73;;;24.10;52.10;;;;;;5020445;28;20053;-52
2021/09/05 02:39:25;;;;;;;2.20;1.67;;;24.10;52.10;;;;;;5023663;28;20233;-57
2021/09/05 02:41:50;;;;;;;2.22;1.67;;;24.10;52.10;;;;;;5016560;28;20055;-52
2021/09/05 02:44:16;;;;;;;2.15;1.60;;;24.10;52.10;;;;;;5012181;28;20129;-51
2021/09/05 02:46:41;;;;;;;2.40;1.80;;;24.10;52.10;;;;;;5020308;28;20037;-54
2021/09/05 02:49:07;;;;;;;2.72;1.70;;;24.10;52.10;;;;;;5018836;28;20116;-51
2021/09/05 02:51:32;;;;;;;2.25;1.67;;;24.10;52.10;;;;;;5020077;28;20437;-56
2021/09/05 02:53:58;;;;;;;2.35;1.52;;;24.10;52.10;;;;;;5023064;28;20104;-57
2021/09/05 02:56:24;;;;;;;2.50;1.77;;;24.10;52.10;;;;;;5021997;28;20068;-57
2021/09/05 02:58:49;;;;;;;2.42;1.77;;;24.00;52.10;;;;;;5013100;28;20434;-47
2021/09/05 03:01:15;;;;;;;2.22;1.70;;;24.00;52.00;;;;;;5016513;28;20436;-54
2021/09/05 03:03:40;;;;;;;2.03;1.55;;;24.10;52.10;;;;;;5025303;28;20108;-51
2021/09/05 03:06:06;;;;;;;2.53;1.60;;;24.10;52.10;;;;;;5017491;28;20316;-59
2021/09/05 03:08:32;;;;;;;2.40;1.80;;;24.00;52.00;;;;;;5023154;28;20029;-56
2021/09/05 03:10:57;;;;;;;2.33;1.70;;;24.00;52.10;;;;;;5016386;28;20029;-52
2021/09/05 03:13:23;;;;;;;2.78;1.60;;;24.00;52.10;;;;;;5015305;28;20030;-55
2021/09/05 03:15:48;;;;;;;2.17;1.60;;;24.00;52.10;;;;;;5022985;28;20553;-56
2021/09/05 03:18:14;;;;;;;2.40;1.75;;;24.00;52.10;;;;;;5012944;28;20033;-57
2021/09/05 03:20:40;;;;;;;2.88;1.75;;;24.00;52.10;;;;;;5021411;28;20036;-52
2021/09/05 03:23:05;;;;;;;2.72;1.80;;;24.00;52.10;;;;;;5013652;28;20111;-56
2021/09/05 03:25:31;;;;;;;2.00;1.45;;;24.00;52.10;;;;;;5017408;28;20022;-54
2021/09/05 03:27:56;;;;;;;2.55;1.80;;;24.00;52.10;;;;;;5021684;28;20044;-54
2021/09/05 03:30:22;;;;;;;2.17;1.58;;;24.00;52.10;;;;;;5022003;28;20430;-53
2021/09/05 03:32:48;;;;;;;2.17;1.50;;;23.90;52.10;;;;;;5010396;28;20162;-57
2021/09/05 03:35:13;;;;;;;2.13;1.50;;;24.00;52.10;;;;;;5017097;28;20025;-53
2021/09/05 03:37:39;;;;;;;2.03;1.50;;;23.90;52.10;;;;;;5020325;28;20026;-57
2021/09/05 03:40:05;;;;;;;2.67;1.83;;;24.00;52.10;;;;;;5020859;28;20099;-57
2021/09/05 03:42:31;;;;;;;2.00;1.50;;;23.90;52.10;;;;;;5019201;28;20072;-54
2021/09/05 03:44:56;;;;;;;2.15;1.60;;;23.90;52.10;;;;;;5024450;28;20053;-55
2021/09/05 03:47:24;;;;;;;1.85;1.48;;;23.90;52.10;;;;;;5027520;28;20037;-56
2021/09/05 03:49:50;;;;;;;2.30;1.60;;;23.90;52.10;;;;;;5027297;28;20248;-52
2021/09/05 03:52:15;;;;;;;2.38;1.80;;;23.90;52.10;;;;;;5021824;28;20029;-55
2021/09/05 03:54:41;;;;;;;2.40;1.60;;;23.90;52.10;;;;;;5014431;28;20057;-58
2021/09/05 03:57:07;;;;;;;2.45;1.83;;;23.90;52.10;;;;;;5018709;28;20030;-58
2021/09/05 03:59:32;;;;;;;2.22;1.60;;;23.90;52.10;;;;;;5028287;28;20079;-56
2021/09/05 04:01:58;;;;;;;2.25;1.52;;;23.90;52.10;;;;;;5027264;28;20021;-52
2021/09/05 04:04:24;;;;;;;2.08;1.42;;;23.90;52.10;;;;;;5022381;28;20029;-59
2021/09/05 04:06:59;;;;;;;2.50;1.70;;;23.90;52.10;;;;;;5019128;28;20056;-59
2021/09/05 04:12:09;;;;;;;2.10;1.60;;;23.90;52.10;;;;;;5011993;28;20544;-52
2021/09/05 04:14:35;;;;;;;2.40;1.60;;;23.90;52.10;;;;;;5016811;28;20033;-49
2021/09/05 04:17:01;;;;;;;2.47;1.50;;;23.90;52.10;;;;;;5021357;28;20192;-49
2021/09/05 04:19:26;;;;;;;2.13;1.63;;;23.80;52.10;;;;;;5021257;28;20496;-60
2021/09/05 04:21:52;;;;;;;2.20;1.50;;;23.90;52.10;;;;;;5026666;28;20033;-59
2021/09/05 04:24:17;;;;;;;2.17;1.50;;;23.90;52.10;;;;;;5009725;28;20034;-49
2021/09/05 04:26:43;;;;;;;2.22;1.73;;;23.80;52.10;;;;;;5023455;28;20462;-52
2021/09/05 04:29:08;;;;;;;2.20;1.50;;;23.80;52.10;;;;;;5020034;28;20617;-57
2021/09/05 04:31:34;;;;;;;2.03;1.58;;;23.80;52.10;;;;;;5023867;28;20021;-56
2021/09/05 04:33:59;;;;;;;2.35;1.83;;;23.80;52.10;;;;;;5027043;28;20049;-49
2021/09/05 04:36:25;;;;;;;1.85;1.40;;;23.80;52.10;;;;;;5017271;28;20113;-50
2021/09/05 04:38:51;;;;;;;1.98;1.40;;;23.80;52.20;;;;;;5025155;28;20036;-52
2021/09/05 04:41:16;;;;;;;2.20;1.70;;;23.80;52.20;;;;;;5015125;28;20037;-57
2021/09/05 04:43:42;;;;;;;1.95;1.50;;;23.80;52.20;;;;;;5022749;28;20228;-58
2021/09/05 04:46:07;;;;;;;2.13;1.58;;;23.80;52.20;;;;;;5017344;28;20037;-51
2021/09/05 04:48:33;;;;;;;2.03;1.45;;;23.80;52.10;;;;;;5021645;28;20025;-56
2021/09/05 04:50:58;;;;;;;2.10;1.67;;;23.80;52.20;;;;;;5021653;28;20397;-54
2021/09/05 04:53:24;;;;;;;1.92;1.38;;;23.80;52.20;;;;;;5018390;28;20215;-57
2021/09/05 04:55:49;;;;;;;1.95;1.42;;;23.80;52.20;;;;;;5017054;28;20037;-56
2021/09/05 04:58:15;;;;;;;2.17;1.55;;;23.80;52.20;;;;;;5035153;28;20113;-49
2021/09/05 05:00:41;;;;;;;1.60;1.25;;;23.70;52.10;;;;;;5010901;28;20096;-50
2021/09/05 05:03:06;;;;;;;2.05;1.65;;;23.70;52.10;;;;;;5025000;28;20048;-51
2021/09/05 05:05:32;;;;;;;2.15;1.40;;;23.70;52.20;;;;;;5022095;28;20041;-57
2021/09/05 05:07:57;;;;;;;2.10;1.60;;;23.70;52.20;;;;;;5013082;28;20465;-51
2021/09/05 05:10:23;;;;;;;1.95;1.40;;;23.70;52.20;;;;;;5014884;28;20106;-54
2021/09/05 05:12:49;;;;;;;1.98;1.48;;;23.70;52.20;;;;;;5019109;28;20137;-48
2021/09/05 05:15:14;;;;;;;1.90;1.40;;;23.70;52.20;;;;;;5017693;28;20026;-56
2021/09/05 05:17:40;;;;;;;2.20;1.50;;;23.70;52.20;;;;;;5010637;28;20358;-54
2021/09/05 05:20:06;;;;;;;2.40;1.65;;;23.70;52.20;;;;;;5011729;28;20063;-55
2021/09/05 05:22:32;;;;;;;2.20;1.60;;;23.70;52.20;;;;;;5023154;28;20204;-53
2021/09/05 05:24:57;;;;;;;2.33;1.58;;;23.70;52.20;;;;;;5022784;28;20189;-53
2021/09/05 05:27:23;;;;;;;2.13;1.58;;;23.70;52.20;;;;;;5016707;28;20037;-50
2021/09/05 05:29:48;;;;;;;2.15;1.55;;;23.70;52.20;;;;;;5023260;28;20025;-56
2021/09/05 05:32:14;;;;;;;2.25;1.52;;;23.70;52.20;;;;;;5020703;28;20136;-51
2021/09/05 05:34:40;;;;;;;1.90;1.50;;;23.70;52.20;;;;;;5014903;28;20025;-49
2021/09/05 05:37:06;;;;;;;2.40;1.70;;;23.70;52.20;;;;;;5016153;28;20235;-47
2021/09/05 05:39:32;;;;;;;2.17;1.60;;;23.70;52.30;;;;;;5013611;28;20025;-58
2021/09/05 05:41:57;;;;;;;1.85;1.33;;;23.60;52.20;;;;;;5019702;28;20064;-55
2021/09/05 05:44:23;;;;;;;1.70;1.30;;;23.60;52.20;;;;;;5018313;28;20366;-50
2021/09/05 05:46:49;;;;;;;1.90;1.40;;;23.60;52.80;;;;;;5017027;28;20165;-55
2021/09/05 05:49:14;;;;;;;2.22;1.50;;;23.60;52.20;;;;;;5011954;28;20088;-56
2021/09/05 05:51:40;;;;;;;2.22;1.55;;;23.60;52.20;;;;;;5023255;28;20041;-58
2021/09/05 05:54:06;;;;;;;1.92;1.42;;;23.60;52.20;;;;;;5008875;28;20412;-53
2021/09/05 05:56:31;;;;;;;2.10;1.52;;;23.60;52.20;;;;;;5024547;28;20135;-52
2021/09/05 05:58:57;;;;;;;2.10;1.50;;;23.60;52.20;;;;;;5020548;28;20030;-55
2021/09/05 06:01:23;;;;;;;2.10;1.40;;;23.60;52.30;;;;;;5013991;28;20465;-59
2021/09/05 06:03:48;;;;;;;1.90;1.50;;;23.60;52.30;;;;;;5007298;28;20100;-56
2021/09/05 06:06:14;;;;;;;2.05;1.30;;;23.60;52.20;;;;;;5008219;28;20105;-52
2021/09/05 06:08:40;;;;;;;1.70;1.30;;;23.60;52.00;;;;;;5018423;28;20091;-48
2021/09/05 06:11:06;;;;;;;2.85;1.58;;;23.60;51.60;;;;;;5017106;28;20542;-56
2021/09/05 06:13:32;;;;;;;1.77;1.20;;;23.60;51.20;;;;;;5019099;28;20076;-53
2021/09/05 06:15:58;;;;;;;1.83;1.30;;;23.60;50.80;;;;;;5008834;28;20042;-61
2021/09/05 06:18:23;;;;;;;1.85;1.27;;;23.60;50.40;;;;;;5006179;28;20022;-59
2021/09/05 06:20:49;;;;;;;1.58;1.27;;;23.60;50.00;;;;;;5020030;28;20033;-59
2021/09/05 06:23:14;;;;;;;1.40;1.10;;;23.50;49.60;;;;;;5024794;28;20209;-59
2021/09/05 06:25:40;;;;;;;1.90;1.20;;;23.50;49.50;;;;;;5023052;28;20045;-53
2021/09/05 06:28:06;;;;;;;1.58;1.20;;;23.50;49.30;;;;;;5017417;28;20030;-58
2021/09/05 06:30:31;;;;;;;1.48;1.20;;;23.50;49.10;;;;;;5008125;28;20405;-54
2021/09/05 06:32:57;;;;;;;1.88;1.42;;;23.50;49.00;;;;;;5007815;28;20037;-58
2021/09/05 06:35:23;;;;;;;2.00;1.40;;;23.50;49.00;;;;;;5017980;28;20044;-56
2021/09/05 06:37:48;;;;;;;2.05;1.40;;;23.50;48.80;;;;;;5006431;28;20141;-59
2021/09/05 06:40:14;;;;;;;1.80;1.38;;;23.50;48.70;;;;;;5010551;28;20029;-59
2021/09/05 06:42:40;;;;;;;2.42;1.65;;;23.50;48.70;;;;;;5012070;28;20064;-59
2021/09/05 06:45:05;;;;;;;3.20;1.50;;;23.50;48.70;;;;;;5022172;28;20030;-54
2021/09/05 06:47:31;;;;;;;2.35;1.50;;;23.50;48.70;;;;;;5021383;28;20030;-58
2021/09/05 06:49:57;;;;;;;2.92;1.70;;;23.40;48.60;;;;;;5021838;28;20096;-54
2021/09/05 06:52:22;;;;;;;3.58;1.80;;;23.40;48.60;;;;;;5022292;28;20084;-54
2021/09/05 06:54:48;;;;;;;2.75;1.73;;;23.40;48.50;;;;;;5012644;28;20084;-56
2021/09/05 06:57:14;;;;;;;3.75;1.48;;;23.40;48.50;;;;;;5003578;28;20037;-53
2021/09/05 06:59:39;;;;;;;2.67;1.67;;;23.40;48.50;;;;;;5015441;28;20132;-54
2021/09/05 07:02:05;;;;;;;2.40;1.70;;;23.40;48.50;;;;;;5010731;28;20030;-50
2021/09/05 07:04:32;;;;;;;3.45;1.80;;;23.40;48.60;;;;;;5008967;28;20530;-55
2021/09/05 07:06:57;;;;;;;2.67;1.88;;;23.40;48.50;;;;;;5013161;28;20378;-54
2021/09/05 07:09:23;;;;;;;2.95;1.83;;;23.40;48.60;;;;;;5007445;28;20021;-50
2021/09/05 07:11:49;;;;;;;4.45;1.98;;;23.40;48.60;;;;;;5008689;28;20041;-52
2021/09/05 07:14:14;;;;;;;5.47;2.00;;;23.40;48.60;;;;;;5027373;28;20038;-45
2021/09/05 07:16:40;;;;;;;3.90;2.15;;;23.40;48.60;;;;;;5024046;28;20622;-53
2021/09/05 07:19:06;;;;;;;3.13;2.25;;;23.40;48.70;;;;;;5015782;28;20029;-56
2021/09/05 07:21:31;;;;;;;3.00;2.00;;;23.40;48.70;;;;;;5024752;28;20033;-58
2021/09/05 07:23:57;;;;;;;3.72;2.13;;;23.40;48.80;;;;;;5019191;28;20473;-56
2021/09/05 07:26:23;;;;;;;4.75;2.70;;;23.40;49.30;;;;;;5007103;28;20037;-52
2021/09/05 07:28:48;;;;;;;6.07;2.70;;;23.40;49.70;;;;;;5021037;28;20095;-48
2021/09/05 07:31:14;;;;;;;5.28;2.70;;;23.40;49.90;;;;;;5010115;28;20418;-50
2021/09/05 07:33:39;;;;;;;3.78;2.53;;;23.40;49.80;;;;;;5018179;28;20510;-59
2021/09/05 07:36:05;;;;;;;3.28;2.33;;;23.40;49.80;;;;;;5010748;28;20044;-52
2021/09/05 07:38:31;;;;;;;3.75;2.40;;;23.40;49.90;;;;;;5005391;28;20033;-56
2021/09/05 07:40:56;;;;;;;3.88;2.53;;;23.40;49.90;;;;;;5009744;28;20061;-57
2021/09/05 07:43:22;;;;;;;3.83;2.42;;;23.40;50.00;;;;;;5005032;28;20053;-57
2021/09/05 07:45:47;;;;;;;5.75;2.60;;;23.40;50.00;;;;;;5007676;28;20033;-56
2021/09/05 07:48:13;;;;;;;3.15;2.30;;;23.40;50.10;;;;;;5007667;28;20108;-59
2021/09/05 07:50:38;;;;;;;3.22;2.47;;;23.40;50.20;;;;;;5012348;28;20500;-59
2021/09/05 07:53:04;;;;;;;3.42;2.40;;;23.40;50.20;;;;;;5014216;28;20099;-52
2021/09/05 07:55:30;;;;;;;3.38;2.40;;;23.40;50.30;;;;;;5013337;28;20113;-57
2021/09/05 07:57:55;;;;;;;3.58;2.17;;;23.40;50.40;;;;;;5037248;28;20064;-52
2021/09/05 08:00:21;;;;;;;4.03;2.60;;;23.40;50.40;;;;;;5010234;28;20022;-58
2021/09/05 08:02:47;;;;;;;3.53;2.50;;;23.40;50.50;;;;;;5010328;28;20030;-61
2021/09/05 08:05:12;;;;;;;4.10;2.80;;;23.50;50.60;;;;;;5021988;28;20026;-60
2021/09/05 08:07:38;;;;;;;3.22;2.40;;;23.50;50.60;;;;;;5016881;28;20037;-58
2021/09/05 08:10:05;;;;;;;3.05;2.30;;;23.40;50.60;;;;;;5012551;28;20026;-56
2021/09/05 08:12:30;;;;;;;3.17;2.38;;;23.50;50.70;;;;;;5014202;28;20037;-51
2021/09/05 08:14:56;;;;;;;3.83;2.72;;;23.50;50.80;;;;;;5027608;28;20030;-60
2021/09/05 08:17:21;;;;;;;4.18;3.25;;;23.50;50.80;;;;;;5029482;28;20068;-55
2021/09/05 08:19:50;;;;;;;4.05;3.47;;;23.50;50.90;;;;;;5014747;28;20031;-57
2021/09/05 08:22:16;;;;;;;4.30;3.80;;;23.50;51.00;;;;;;5028695;28;20461;-53
2021/09/05 08:24:42;;;;;;;4.40;3.60;;;23.50;51.00;;;;;;5027217;28;20130;-52
2021/09/05 08:27:07;;;;;;;5.43;3.60;;;23.50;51.10;;;;;;5027026;28;20071;-51
2021/09/05 08:29:33;;;;;;;5.07;3.40;;;23.50;51.10;;;;;;5023474;28;20342;-53
2021/09/05 08:31:58;;;;;;;4.10;3.38;;;23.50;51.20;;;;;;5017640;28;20036;-49
2021/09/05 08:34:24;;;;;;;3.70;2.90;;;23.50;51.40;;;;;;5013154;28;20029;-51
2021/09/05 08:36:50;;;;;;;3.55;2.88;;;23.50;51.40;;;;;;5008383;28;20620;-60
2021/09/05 08:39:16;;;;;;;3.95;3.10;;;23.60;51.50;;;;;;5015683;28;20437;-53
2021/09/05 08:41:41;;;;;;;4.30;3.05;;;23.60;51.50;;;;;;5007487;28;20041;-55
2021/09/05 08:44:07;;;;;;;3.20;2.65;;;23.60;51.60;;;;;;5036612;28;20060;-55
2021/09/05 08:46:33;;;;;;;3.90;2.80;;;23.50;51.50;;;;;;5025374;28;20029;-50
2021/09/05 08:49:02;;;;;;;3.47;2.92;;;23.50;51.50;;;;;;5008533;28;20037;-50
2021/09/05 08:51:27;;;;;;;;;;;23.60;51.60;;;;;;5022325;28;20117;-53
2021/09/05 08:53:54;;;;;;;3.50;2.80;;;23.50;51.50;;;;;;5024246;28;20023;-55
2021/09/05 08:56:19;;;;;;;3.38;2.70;;;23.50;51.50;;;;;;5024546;28;20063;-54
2021/09/05 08:58:45;;;;;;;3.92;2.78;;;23.50;51.50;;;;;;5006770;28;20138;-52
2021/09/05 09:01:19;;;;;;;3.58;2.63;;;23.50;51.50;;;;;;5022594;28;20163;-54
2021/09/05 09:03:45;;;;;;;3.35;2.67;;;23.50;51.50;;;;;;5011145;28;20091;-52
2021/09/05 09:06:17;;;;;;;4.15;2.92;;;23.50;51.50;;;;;;5004639;28;20375;-53
2021/09/05 09:08:53;;;;;;;3.47;2.58;;;23.50;51.50;;;;;;5018376;28;20189;-51
2021/09/05 09:11:18;;;;;;;3.33;2.58;;;23.50;51.50;;;;;;5021900;28;20435;-56
2021/09/05 09:13:44;;;;;;;3.97;2.60;;;23.50;51.50;;;;;;5020692;28;20041;-58
2021/09/05 09:16:11;;;;;;;3.83;2.60;;;23.60;51.50;;;;;;5011489;28;20030;-58
2021/09/05 09:18:42;;;;;;;3.33;2.80;;;23.50;51.50;;;;;;5004949;28;20076;-57
2021/09/05 09:21:15;;;;;;;3.03;2.38;;;23.50;51.50;;;;;;5024296;28;20808;-56
2021/09/05 09:23:41;;;;;;;3.13;2.45;;;23.50;51.60;;;;;;5025452;28;20067;-52
2021/09/05 09:26:16;;;;;;;3.53;2.58;;;23.50;51.60;;;;;;5024564;28;20053;-55
2021/09/05 09:28:48;;;;;;;3.40;2.67;;;23.50;51.50;;;;;;5022457;28;20365;-58
2021/09/05 09:31:19;;;;;;;3.75;2.60;;;23.50;51.50;;;;;;5012658;28;20021;-53
2021/09/05 09:33:47;;;;;;;3.42;2.50;;;23.50;51.50;;;;;;5021388;28;20089;-53
2021/09/05 09:36:18;;;;;;;3.25;2.60;;;23.50;51.50;;;;;;5024918;28;20041;-56
2021/09/05 09:38:52;;;;;;;2.90;2.38;;;23.50;51.50;;;;;;5022337;28;20044;-59
2021/09/05 09:41:17;;;;;;;3.47;2.47;;;23.50;51.50;;;;;;5005568;28;20623;-50
2021/09/05 09:43:51;;;;;;;4.32;2.72;;;23.50;51.50;;;;;;5016305;28;20116;-55
2021/09/05 09:46:19;;;;;;;3.20;2.35;;;23.50;51.60;;;;;;5005028;28;20072;-56
2021/09/05 09:48:47;;;;;;;3.27;2.70;;;23.50;51.70;;;;;;5014862;28;20060;-53
2021/09/05 09:51:14;;;;;;;3.65;2.80;;;23.50;51.80;;;;;;5021369;28;20030;-55
2021/09/05 09:53:41;;;;;;;3.33;2.50;;;23.50;51.80;;;;;;5007122;28;20041;-55
2021/09/05 09:56:13;;;;;;;3.05;2.50;;;23.50;51.90;;;;;;5014302;28;20045;-56
2021/09/05 09:58:39;;;;;;;2.85;2.28;;;23.50;51.90;;;;;;5022186;28;20207;-53
2021/09/05 10:01:05;;;;;;;3.45;2.70;;;23.50;51.90;;;;;;5022687;28;20052;-52
2021/09/05 10:03:31;;;;;;;3.60;2.70;;;23.50;51.90;;;;;;5017511;28;20112;-56
2021/09/05 10:05:59;;;;;;;3.42;2.50;;;23.50;52.00;;;;;;5007007;28;20034;-50
2021/09/05 10:08:30;;;;;;;3.33;2.40;;;23.60;52.00;;;;;;5008540;28;20048;-56
2021/09/05 10:10:58;;;;;;;3.60;2.65;;;23.50;51.90;;;;;;5017312;28;20043;-51
2021/09/05 10:13:37;;;;;;;3.20;2.50;;;23.60;52.00;;;;;;5021065;28;20042;-54
2021/09/05 10:16:03;;;;;;;;;;;23.50;52.00;;;;;;5024545;28;20450;-56
2021/09/05 10:18:32;;;;;;;3.88;2.60;;;23.50;52.00;;;;;;5014594;28;19925;-56
2021/09/05 10:20:59;;;;;;;3.47;2.40;;;23.50;52.40;;;;;;5024782;28;20085;-52
2021/09/05 10:23:29;;;;;;;3.13;2.60;;;23.50;51.90;;;;;;5010855;28;20033;-54
2021/09/05 10:25:56;;;;;;;4.53;2.45;;;23.50;52.00;;;;;;5013949;28;20486;-54
2021/09/05 10:28:37;;;;;;;3.25;2.45;;;23.60;52.00;;;;;;5021890;28;20080;-48
2021/09/05 10:31:04;;;;;;;3.50;2.70;;;23.60;52.00;;;;;;5026475;28;20374;-56
2021/09/05 10:33:35;;;;;;;4.10;2.70;;;23.60;52.00;;;;;;5015318;28;20521;-57
2021/09/05 10:36:08;;;;;;;3.28;2.40;;;23.60;52.00;;;;;;5013379;28;20037;-55
2021/09/05 10:38:38;;;;;;;3.00;2.50;;;23.60;52.00;;;;;;5016843;28;20559;-57
2021/09/05 10:41:23;;;;;;;3.33;2.60;;;23.60;52.00;;;;;;5028415;28;20025;-55
2021/09/05 10:44:01;;;;;;;3.05;2.60;;;23.60;52.00;;;;;;5014287;28;20041;-52
2021/09/05 10:46:35;;;;;;;3.60;2.70;;;23.60;52.00;;;;;;5025226;28;20025;-55
2021/09/05 10:49:03;;;;;;;3.15;2.60;;;23.60;52.00;;;;;;5012556;28;20108;-57
2021/09/05 10:51:36;;;;;;;3.58;2.65;;;23.60;52.00;;;;;;5029985;28;20109;-51
2021/09/05 10:54:08;;;;;;;2.78;2.35;;;23.60;52.00;;;;;;5035601;28;20124;-53
2021/09/05 10:56:41;;;;;;;3.28;2.58;;;23.60;52.00;;;;;;5029897;28;20053;-55
2021/09/05 10:59:07;;;;;;;3.40;2.58;;;23.60;52.00;;;;;;5024383;28;20048;-52
2021/09/05 11:01:37;;;;;;;3.70;2.70;;;23.60;51.90;;;;;;5021529;28;20022;-57
2021/09/05 11:04:12;;;;;;;3.33;2.63;;;23.60;51.90;;;;;;5016177;28;20061;-55
2021/09/05 11:06:40;;;;;;;3.30;2.45;;;23.60;51.90;;;;;;5022149;28;20033;-59
2021/09/05 11:12:06;;;;;;;3.00;2.35;;;23.60;51.90;;;;;;5025392;28;20634;-52
2021/09/05 11:14:35;;;;;;;3.77;2.60;;;23.60;51.90;;;;;;5020249;28;20104;-58
2021/09/05 11:17:11;;;;;;;2.80;2.30;;;23.60;51.90;;;;;;5023391;28;20351;-57
2021/09/05 11:19:46;;;;;;;3.00;2.30;;;23.60;51.90;;;;;;5020527;28;20644;-58
2021/09/05 11:22:14;;;;;;;3.25;2.50;;;23.60;51.80;;;;;;5026528;28;20503;-57
2021/09/05 11:24:40;;;;;;;3.25;2.50;;;23.60;51.90;;;;;;5025545;28;20041;-57
2021/09/05 11:27:08;;;;;;;3.53;2.75;;;23.60;51.90;;;;;;5027460;28;20029;-54
2021/09/05 11:29:35;;;;;;;4.25;2.45;;;23.60;51.80;;;;;;5017425;28;20036;-55
2021/09/05 11:32:10;;;;;;;2.95;2.30;;;23.60;51.90;;;;;;5012039;28;20037;-54
2021/09/05 11:34:37;;;;;;;3.30;2.58;;;23.60;51.80;;;;;;5017843;28;20048;-57
2021/09/05 11:37:04;;;;;;;3.33;2.45;;;23.60;51.80;;;;;;5025575;28;20026;-55
2021/09/05 11:39:30;;;;;;;3.70;2.78;;;23.60;51.80;;;;;;5009963;28;20448;-59
2021/09/05 11:41:58;;;;;;;3.15;2.65;;;23.60;51.70;;;;;;5027503;28;20045;-57
2021/09/05 11:44:34;;;;;;;3.35;2.50;;;23.60;51.70;;;;;;5017900;28;20495;-55
2021/09/05 11:47:13;;;;;;;3.00;2.60;;;23.60;51.70;;;;;;5011988;28;20453;-52
2021/09/05 11:49:50;;;;;;;3.30;2.38;;;23.60;51.60;;;;;;5018383;28;20029;-58
2021/09/05 11:52:19;;;;;;;2.97;2.35;;;23.70;51.60;;;;;;5026785;28;20366;-53
2021/09/05 11:55:05;;;;;;;3.60;2.67;;;23.70;51.60;;;;;;5015193;28;20145;-59
2021/09/05 11:57:32;;;;;;;3.08;2.40;;;23.70;51.50;;;;;;5010751;28;20033;-57
2021/09/05 12:00:00;;;;;;;3.20;2.50;;;23.70;51.50;;;;;;5019400;28;20505;-54
2021/09/05 12:02:32;;;;;;;2.97;2.30;;;23.70;52.00;;;;;;5023496;28;20041;-52
2021/09/05 12:04:58;;;;;;;3.20;2.53;;;23.70;51.50;;;;;;5027990;28;20103;-59
2021/09/05 12:07:27;;;;;;;3.42;2.60;;;23.70;51.40;;;;;;5022265;28;20041;-58
2021/09/05 12:10:11;;;;;;;3.30;2.45;;;23.70;51.40;;;;;;5042386;28;20029;-50
2021/09/05 12:12:39;;;;;;;3.47;2.60;;;23.70;51.40;;;;;;5028736;28;20049;-56
2021/09/05 12:15:36;;;;;;;2.90;2.30;;;23.70;51.30;;;;;;5013063;28;20025;-58
2021/09/05 12:18:14;;;;;;;3.90;2.40;;;23.70;51.20;;;;;;4998471;28;20030;-57
2021/09/05 12:20:42;;;;;;;3.67;2.53;;;23.70;51.20;;;;;;5023830;28;20028;-55
2021/09/05 12:23:21;;;;;;;3.15;2.30;;;23.70;51.30;;;;;;5028356;28;20042;-56
2021/09/05 12:25:47;;;;;;;;;;;23.70;51.20;;;;;;5030691;28;20025;-59
2021/09/05 12:28:20;;;;;;;3.58;2.30;;;23.70;51.10;;;;;;5027054;28;19920;-58
2021/09/05 12:31:00;;;;;;;3.05;2.40;;;23.70;51.10;;;;;;5029942;28;20030;-57
2021/09/05 12:33:26;;;;;;;3.15;2.30;;;23.70;51.10;;;;;;5014013;28;20473;-57
2021/09/05 12:35:54;;;;;;;3.38;2.33;;;23.70;51.10;;;;;;5013572;28;20025;-52
2021/09/05 12:38:28;;;;;;;3.15;2.47;;;23.70;51.10;;;;;;5012351;28;20673;-56
2021/09/05 12:41:02;;;;;;;3.42;2.40;;;23.70;51.00;;;;;;5019684;28;20026;-57
2021/09/05 12:43:57;;;;;;;3.60;2.70;;;23.70;50.90;;;;;;5016240;28;20128;-51
2021/09/05 12:46:36;;;;;;;2.85;2.20;;;23.70;50.90;;;;;;5016482;28;20185;-57
2021/09/05 12:49:11;;;;;;;3.22;2.42;;;23.70;50.90;;;;;;5009827;28;20486;-49
2021/09/05 12:51:53;;;;;;;3.10;2.40;;;23.70;50.80;;;;;;5010354;28;20034;-58
2021/09/05 12:54:20;;;;;;;2.83;2.40;;;23.70;50.80;;;;;;5009577;28;20030;-53